KB5U-1 Weather Reports


Display with metric or nautical units.
time (UTC)temp
F
wind
direction
speed
MPH
gust
MPH
rain 1hr
in
rain 24hr
in
rain mn
in
humidity
%
barometer
mb
20211205052045 66 207 0.0 1.0 0.00 0.00 0.00 94
20211205051544 66 0 0.0 0.0 0.00 0.00 0.00 94
20211205051043 66 191 0.0 2.0 0.00 0.00 0.00 94
20211205050543 66 135 1.0 3.0 0.00 0.00 0.00 94
20211205050040 66 160 1.0 4.0 0.00 0.00 0.00 94
20211205045541 66 136 1.0 5.0 0.00 0.00 0.00 94
20211205045038 66 145 0.0 2.0 0.00 0.00 0.00 93
20211205044536 65 194 0.0 2.0 0.00 0.00 0.00 93
20211205044036 65 166 0.0 3.0 0.00 0.00 0.00 93
20211205043536 65 121 1.0 5.0 0.00 0.00 0.00 93
20211205043035 65 115 1.0 4.0 0.00 0.00 0.00 93
20211205042535 65 89 1.0 4.0 0.00 0.00 0.00 93
20211205042035 66 0 0.0 0.0 0.00 0.00 0.00 92
20211205041535 66 93 1.0 4.0 0.00 0.00 0.00 92
20211205041034 66 79 0.0 3.0 0.00 0.00 0.00 92
20211205040535 66 0 0.0 0.0 0.00 0.00 0.00 92
20211205040033 66 110 0.0 3.0 0.00 0.00 0.00 92
20211205035533 66 122 1.0 4.0 0.00 0.00 0.00 92
20211205035032 66 100 2.0 5.0 0.00 0.00 0.00 92
20211205034528 66 121 2.0 5.0 0.00 0.00 0.00 92
20211205034028 66 101 2.0 5.0 0.00 0.00 0.00 92
20211205033530 66 107 0.0 4.0 0.00 0.00 0.00 91
20211205033024 66 129 1.0 3.0 0.00 0.00 0.00 91
20211205032523 66 134 1.0 3.0 0.00 0.00 0.00 91
20211205032022 66 0 0.0 0.0 0.00 0.00 0.00 91
20211205031523 66 0 0.0 0.0 0.00 0.00 0.00 90
20211205031020 66 0 0.0 0.0 0.00 0.00 0.00 90
20211205030517 66 146 0.0 4.0 0.00 0.00 0.00 90
20211205030015 66 97 0.0 3.0 0.00 0.00 0.00 90
20211205025515 66 84 1.0 2.0 0.00 0.00 0.00 89
20211205025015 66 65 0.0 3.0 0.00 0.00 0.00 89
20211205024515 67 87 0.0 3.0 0.00 0.00 0.00 89
20211205024015 67 0 0.0 0.0 0.00 0.00 0.00 88
20211205023512 67 0 0.0 0.0 0.00 0.00 0.00 88
20211205023011 67 0 0.0 0.0 0.00 0.00 0.00 88
20211205022510 68 0 0.0 0.0 0.00 0.00 0.00 88
20211205022010 68 0 0.0 0.0 0.00 0.00 0.00 87
20211205021506 68 76 0.0 2.0 0.00 0.00 0.00 87
20211205021006 68 91 1.0 3.0 0.00 0.00 0.00 87
20211205020505 68 89 1.0 3.0 0.00 0.00 0.00 87
20211205020004 68 134 0.0 1.0 0.00 0.00 0.00 86
20211205015506 69 65 0.0 1.0 0.00 0.00 0.00 86
20211205014959 69 89 0.0 2.0 0.00 0.00 0.00 86
20211205013955 69 63 0.0 2.0 0.00 0.00 0.00 86
20211205013455 69 107 1.0 4.0 0.00 0.00 0.00 86
20211205012953 69 0 0.0 0.0 0.00 0.00 0.00 86
20211205012454 69 117 0.0 3.0 0.00 0.00 0.00 86
20211205011954 69 128 0.0 3.0 0.00 0.00 0.00 86
20211205011454 69 94 0.0 3.0 0.00 0.00 0.00 86
20211205010953 69 100 1.0 4.0 0.00 0.00 0.00 86
20211205010453 69 101 0.0 3.0 0.00 0.00 0.00 85
20211205005950 69 110 0.0 2.0 0.00 0.00 0.00 85
20211205005449 69 0 0.0 0.0 0.00 0.00 0.00 85
20211205005121 69 179 0.0 2.0 0.00 0.00 0.00 85
20211205004948 69 179 0.0 2.0 0.00 0.00 0.00 85
20211205004447 69 180 0.0 3.0 0.00 0.00 0.00 85
20211205003944 69 0 0.0 0.0 0.00 0.00 0.00 85
20211205003443 69 84 0.0 2.0 0.00 0.00 0.00 85
20211205002939 69 66 2.0 4.0 0.00 0.00 0.00 85
20211205002438 69 70 1.0 4.0 0.00 0.00 0.00 85
20211205001937 69 94 2.0 4.0 0.00 0.00 0.00 85
20211205001436 69 75 3.0 5.0 0.00 0.00 0.00 85
20211205000933 69 76 0.0 2.0 0.00 0.00 0.00 85
20211205000431 69 76 1.0 3.0 0.00 0.00 0.00 85
20211204235930 69 87 1.0 3.0 0.00 0.00 0.00 85
20211204235429 69 76 1.0 4.0 0.00 0.00 0.00 85
20211204234929 69 107 1.0 3.0 0.00 0.00 0.00 84
20211204234427 69 77 1.0 4.0 0.00 0.00 0.00 84
20211204233926 69 80 1.0 4.0 0.00 0.00 0.00 84
20211204233426 69 110 1.0 3.0 0.00 0.00 0.00 84
20211204232926 70 113 1.0 4.0 0.00 0.00 0.00 84
20211204232425 70 120 1.0 3.0 0.00 0.00 0.00 83
20211204231925 70 124 1.0 3.0 0.00 0.00 0.00 83
20211204231425 70 69 2.0 5.0 0.00 0.00 0.00 83
20211204230924 70 107 2.0 5.0 0.00 0.00 0.00 83
20211204230424 70 90 2.0 5.0 0.00 0.00 0.00 83
20211204225924 70 134 2.0 4.0 0.00 0.00 0.00 82
20211204225501 70 113 2.0 5.0 0.00 0.00 0.00 82
20211204225424 70 113 2.0 5.0 0.00 0.00 0.00 82
20211204224424 70 170 3.0 6.0 0.00 0.00 0.00 81
20211204223923 70 90 4.0 8.0 0.00 0.00 0.00 81
20211204223423 70 108 4.0 6.0 0.00 0.00 0.00 81
20211204222922 70 150 3.0 6.0 0.00 0.00 0.00 80
20211204222422 71 163 2.0 5.0 0.00 0.00 0.00 80
20211204221922 71 152 3.0 5.0 0.00 0.00 0.00 79
20211204221420 71 104 4.0 7.0 0.00 0.00 0.00 79
20211204220919 71 105 3.0 6.0 0.00 0.00 0.00 79
20211204220418 71 72 3.0 6.0 0.00 0.00 0.00 79
20211204215918 71 127 4.0 8.0 0.00 0.00 0.00 78
20211204215418 71 152 3.0 6.0 0.00 0.00 0.00 78
20211204214918 71 143 3.0 6.0 0.00 0.00 0.00 78
20211204214420 71 107 3.0 5.0 0.00 0.00 0.00 78
20211204213951 71 103 3.0 6.0 0.00 0.00 0.00 78
20211204213918 71 103 3.0 6.0 0.00 0.00 0.00 78
20211204213417 71 115 3.0 7.0 0.00 0.00 0.00 78
20211204212917 71 82 4.0 7.0 0.00 0.00 0.00 77
20211204212417 71 65 4.0 7.0 0.00 0.00 0.00 77
20211204211418 71 94 2.0 4.0 0.00 0.00 0.00 76
20211204210416 71 97 3.0 7.0 0.00 0.00 0.00 76
20211204205914 71 101 3.0 6.0 0.00 0.00 0.00 76
20211204205415 71 114 2.0 6.0 0.00 0.00 0.00 76
20211204204911 71 159 3.0 5.0 0.00 0.00 0.00 76
20211204204411 71 152 3.0 5.0 0.00 0.00 0.00 75
20211204203956 72 166 4.0 7.0 0.00 0.00 0.00 74
20211204203911 72 166 4.0 7.0 0.00 0.00 0.00 74
20211204203413 72 170 3.0 6.0 0.00 0.00 0.00 74
20211204202907 72 142 5.0 8.0 0.00 0.00 0.00 73
20211204202407 73 107 5.0 8.0 0.00 0.00 0.00 72
20211204201908 73 145 4.0 7.0 0.00 0.00 0.00 70
20211204201407 74 163 3.0 5.0 0.00 0.00 0.00 70
20211204200906 73 167 4.0 6.0 0.00 0.00 0.00 71
20211204200404 73 162 5.0 10.0 0.00 0.00 0.00 73
20211204195904 72 181 5.0 9.0 0.00 0.00 0.00 73
20211204195404 72 200 5.0 9.0 0.00 0.00 0.00 73
20211204194903 72 139 5.0 9.0 0.00 0.00 0.00 74
20211204194404 72 153 6.0 11.0 0.00 0.00 0.00 74
20211204193903 72 124 5.0 8.0 0.00 0.00 0.00 75
20211204193403 72 142 5.0 9.0 0.00 0.00 0.00 75
20211204192901 72 145 6.0 10.0 0.00 0.00 0.00 73
20211204192402 73 201 5.0 8.0 0.00 0.00 0.00 71
20211204191900 73 141 5.0 9.0 0.00 0.00 0.00 71
20211204191400 73 159 4.0 8.0 0.00 0.00 0.00 71
20211204190901 73 152 4.0 7.0 0.00 0.00 0.00 71
20211204190447 73 194 5.0 9.0 0.00 0.00 0.00 69
20211204190354 73 194 5.0 9.0 0.00 0.00 0.00 69
20211204185852 74 162 5.0 10.0 0.00 0.00 0.00 68
20211204185353 75 73 5.0 8.0 0.00 0.00 0.00 68
20211204184852 74 156 4.0 7.0 0.00 0.00 0.00 70
20211204184349 73 153 5.0 10.0 0.00 0.00 0.00 70
20211204183849 73 152 5.0 9.0 0.00 0.00 0.00 70
20211204183350 74 132 5.0 9.0 0.00 0.00 0.00 69
20211204182849 74 149 5.0 8.0 0.00 0.00 0.00 66
20211204182425 75 101 5.0 10.0 0.00 0.00 0.00 65
20211204182349 75 101 5.0 10.0 0.00 0.00 0.00 65
20211204181931 75 115 6.0 10.0 0.00 0.00 0.00 66
20211204181849 75 115 6.0 10.0 0.00 0.00 0.00 66
20211204181437 75 148 5.0 9.0 0.00 0.00 0.00 66
20211204181347 75 148 5.0 9.0 0.00 0.00 0.00 66
20211204180845 75 118 6.0 10.0 0.00 0.00 0.00 64
20211204180347 76 162 5.0 9.0 0.00 0.00 0.00 63
20211204175845 76 101 5.0 10.0 0.00 0.00 0.00 64
20211204175423 75 103 6.0 10.0 0.00 0.00 0.00 64
20211204175344 75 103 6.0 10.0 0.00 0.00 0.00 64
20211204174847 76 181 6.0 9.0 0.00 0.00 0.00 63
20211204174343 76 97 5.0 9.0 0.00 0.00 0.00 64
20211204173844 76 165 5.0 9.0 0.00 0.00 0.00 64
20211204173419 76 150 6.0 9.0 0.00 0.00 0.00 63
20211204173344 76 150 6.0 9.0 0.00 0.00 0.00 63
20211204172840 76 136 6.0 9.0 0.00 0.00 0.00 63
20211204172340 76 128 5.0 8.0 0.00 0.00 0.00 63
20211204171840 76 105 5.0 9.0 0.00 0.00 0.00 64
20211204171342 76 105 5.0 10.0 0.00 0.00 0.00 64
20211204170914 76 107 4.0 8.0 0.00 0.00 0.00 64
20211204170840 76 107 4.0 8.0 0.00 0.00 0.00 64
20211204170339 76 104 5.0 10.0 0.00 0.00 0.00 65
20211204165840 75 141 5.0 10.0 0.00 0.00 0.00 65
20211204165340 75 149 5.0 10.0 0.00 0.00 0.00 65
20211204164841 76 167 3.0 7.0 0.00 0.00 0.00 66
20211204164337 75 107 4.0 8.0 0.00 0.00 0.00 66
20211204163833 75 90 5.0 9.0 0.00 0.00 0.00 67
20211204163332 75 79 4.0 10.0 0.00 0.00 0.00 68
20211204163119 74 142 5.0 8.0 0.00 0.00 0.00 68
20211204162831 74 142 5.0 8.0 0.00 0.00 0.00 68
20211204162339 74 136 5.0 9.0 0.00 0.00 0.00 69
20211204161909 74 148 4.0 10.0 0.00 0.00 0.00 70
20211204161830 74 148 4.0 10.0 0.00 0.00 0.00 70
20211204161330 73 125 3.0 6.0 0.00 0.00 0.00 73
20211204160829 73 131 5.0 8.0 0.00 0.00 0.00 74
20211204160329 72 113 5.0 11.0 0.00 0.00 0.00 74
20211204155829 72 170 4.0 7.0 0.00 0.00 0.00 76
20211204155329 72 87 4.0 7.0 0.00 0.00 0.00 78
20211204154828 71 127 4.0 7.0 0.00 0.00 0.00 78
20211204154328 71 129 4.0 8.0 0.00 0.00 0.00 80
20211204153828 70 166 5.0 10.0 0.00 0.00 0.00 81
20211204153328 70 108 5.0 8.0 0.00 0.00 0.00 82
20211204152828 70 114 4.0 8.0 0.00 0.00 0.00 83
20211204152326 69 79 5.0 11.0 0.00 0.00 0.00 83
20211204151826 69 117 4.0 8.0 0.00 0.00 0.00 85
20211204151325 69 104 4.0 8.0 0.00 0.00 0.00 86
20211204150907 69 131 5.0 8.0 0.00 0.00 0.00 87
20211204150825 69 131 5.0 8.0 0.00 0.00 0.00 87
20211204150325 68 96 5.0 10.0 0.00 0.00 0.00 88
20211204145824 68 103 4.0 11.0 0.00 0.00 0.00 90
20211204145325 67 107 3.0 8.0 0.00 0.00 0.00 93
20211204144824 67 108 5.0 10.0 0.00 0.00 0.00 93
20211204144323 66 141 4.0 7.0 0.00 0.00 0.00 94
20211204143822 66 107 3.0 6.0 0.00 0.00 0.00 95
20211204143318 66 139 2.0 5.0 0.00 0.00 0.00 95
20211204142814 66 125 1.0 6.0 0.00 0.00 0.00 95
20211204142314 66 136 2.0 6.0 0.00 0.00 0.00 95
20211204141814 65 98 4.0 8.0 0.00 0.00 0.00 95
20211204141313 65 121 3.0 7.0 0.00 0.00 0.00 95
20211204140809 65 127 3.0 7.0 0.00 0.00 0.00 95
20211204140428 65 124 3.0 9.0 0.00 0.00 0.00 95
20211204140310 65 124 3.0 9.0 0.00 0.00 0.00 95
20211204135809 65 91 3.0 7.0 0.00 0.00 0.00 95
20211204135308 65 108 4.0 7.0 0.00 0.00 0.00 95
20211204134807 65 146 3.0 8.0 0.00 0.00 0.00 95
20211204134307 65 145 4.0 9.0 0.00 0.00 0.00 95
20211204133807 65 153 1.0 4.0 0.00 0.00 0.00 96
20211204133307 65 96 3.0 8.0 0.00 0.00 0.00 96
20211204132807 65 76 2.0 7.0 0.00 0.00 0.00 96
20211204132306 65 132 2.0 5.0 0.00 0.00 0.00 96
20211204131806 65 90 3.0 8.0 0.00 0.00 0.00 96
20211204131306 65 100 4.0 9.0 0.00 0.00 0.00 96
20211204130806 65 150 3.0 6.0 0.00 0.00 0.00 96
20211204130306 65 84 2.0 6.0 0.00 0.00 0.00 96
20211204125805 65 149 1.0 5.0 0.00 0.00 0.00 96
20211204125306 65 94 3.0 7.0 0.00 0.00 0.00 96
20211204124803 65 132 2.0 5.0 0.00 0.00 0.00 96
20211204124303 65 193 2.0 6.0 0.00 0.00 0.00 96
20211204123802 65 172 1.0 6.0 0.00 0.00 0.00 96
20211204123300 65 163 2.0 5.0 0.00 0.00 0.00 96
20211204122759 65 162 1.0 4.0 0.00 0.00 0.00 96
20211204122300 65 153 1.0 4.0 0.00 0.00 0.00 96
20211204121758 65 121 3.0 6.0 0.00 0.00 0.00 96
20211204121258 65 93 4.0 8.0 0.00 0.00 0.00 96
20211204120758 65 98 3.0 8.0 0.00 0.00 0.00 96
20211204120257 65 132 1.0 6.0 0.00 0.00 0.00 96
20211204115757 65 159 0.0 3.0 0.00 0.00 0.00 96
20211204115258 65 153 0.0 3.0 0.00 0.00 0.00 96
20211204114757 65 120 0.0 1.0 0.00 0.00 0.00 96
20211204114256 64 118 0.0 4.0 0.00 0.00 0.00 96
20211204113756 64 134 0.0 1.0 0.00 0.00 0.00 96
20211204113256 64 0 0.0 0.0 0.00 0.00 0.00 96
20211204112756 64 0 0.0 0.0 0.00 0.00 0.00 96
20211204112258 63 0 0.0 0.0 0.00 0.00 0.00 96
20211204111755 63 0 0.0 0.0 0.00 0.00 0.00 96
20211204111252 63 0 0.0 0.0 0.00 0.00 0.00 96
20211204110750 64 0 0.0 0.0 0.00 0.00 0.00 96
20211204110253 64 0 0.0 0.0 0.00 0.00 0.00 96
20211204105750 64 0 0.0 0.0 0.00 0.00 0.00 96
20211204105250 64 0 0.0 0.0 0.00 0.00 0.00 96
20211204104750 63 65 0.0 3.0 0.00 0.00 0.00 96
20211204104251 63 73 3.0 6.0 0.00 0.00 0.00 96
20211204103749 63 90 3.0 6.0 0.00 0.00 0.00 96
20211204103249 63 65 3.0 5.0 0.00 0.00 0.00 96
20211204102749 63 63 3.0 6.0 0.00 0.00 0.00 96
20211204102249 63 73 3.0 6.0 0.00 0.00 0.00 96
20211204101749 63 89 3.0 7.0 0.00 0.00 0.00 96
20211204101248 62 73 4.0 7.0 0.00 0.00 0.00 96
20211204100748 62 59 2.0 6.0 0.00 0.00 0.00 96
20211204100248 62 84 1.0 4.0 0.00 0.00 0.00 96
20211204095743 62 83 1.0 4.0 0.00 0.00 0.00 96
20211204095242 62 100 1.0 5.0 0.00 0.00 0.00 96
20211204094742 62 73 2.0 5.0 0.00 0.00 0.00 96
20211204094242 62 86 2.0 4.0 0.00 0.00 0.00 96
20211204093742 62 0 0.0 0.0 0.00 0.00 0.00 96
20211204093242 62 45 0.0 2.0 0.00 0.00 0.00 96
20211204092742 62 73 1.0 4.0 0.00 0.00 0.00 96
20211204092240 62 45 0.0 4.0 0.00 0.00 0.00 96
20211204091901 63 44 0.0 2.0 0.00 0.00 0.00 96
20211204091739 63 44 0.0 2.0 0.00 0.00 0.00 96
20211204091239 63 75 1.0 5.0 0.00 0.00 0.00 96
20211204090739 63 53 1.0 4.0 0.00 0.00 0.00 96
20211204090238 63 83 0.0 2.0 0.00 0.00 0.00 95
20211204085900 63 84 1.0 3.0 0.00 0.00 0.00 95
20211204085738 63 84 1.0 3.0 0.00 0.00 0.00 95
20211204085407 63 89 1.0 4.0 0.00 0.00 0.00 95
20211204085238 63 89 1.0 4.0 0.00 0.00 0.00 95
20211204084738 63 86 1.0 4.0 0.00 0.00 0.00 95
20211204084238 63 86 0.0 4.0 0.00 0.00 0.00 95
20211204083737 63 76 0.0 3.0 0.00 0.00 0.00 95
20211204083237 63 89 0.0 3.0 0.00 0.00 0.00 95
20211204082737 63 82 1.0 3.0 0.00 0.00 0.00 95
20211204082237 64 89 0.0 2.0 0.00 0.00 0.00 95
20211204081736 64 82 1.0 4.0 0.00 0.00 0.00 95
20211204081236 64 104 0.0 2.0 0.00 0.00 0.00 95
20211204080736 63 62 0.0 3.0 0.00 0.00 0.00 95
20211204080235 64 59 1.0 3.0 0.00 0.00 0.00 94
20211204075728 64 108 1.0 3.0 0.00 0.00 0.00 94
20211204075228 64 79 1.0 3.0 0.00 0.00 0.00 94
20211204074728 64 113 0.0 1.0 0.00 0.00 0.00 94
20211204074227 64 101 1.0 3.0 0.00 0.00 0.00 94
20211204073727 64 86 1.0 4.0 0.00 0.00 0.00 94
20211204073226 64 75 1.0 3.0 0.00 0.00 0.00 94
20211204072726 64 72 1.0 2.0 0.00 0.00 0.00 94
20211204072226 64 0 0.0 0.0 0.00 0.00 0.00 93
20211204071726 64 0 0.0 0.0 0.00 0.00 0.00 93
20211204071228 64 0 0.0 0.0 0.00 0.00 0.00 92
20211204070725 64 0 0.0 0.0 0.00 0.00 0.00 92
20211204070225 64 90 1.0 2.0 0.00 0.00 0.00 92
20211204065725 65 104 1.0 3.0 0.00 0.00 0.00 92
20211204065225 65 82 0.0 1.0 0.00 0.00 0.00 92
20211204064725 65 0 0.0 0.0 0.00 0.00 0.00 92
20211204064223 65 0 0.0 0.0 0.00 0.00 0.00 92
20211204063721 65 60 0.0 1.0 0.00 0.00 0.00 91
20211204063221 65 65 0.0 1.0 0.00 0.00 0.00 91
20211204062721 65 0 0.0 0.0 0.00 0.00 0.00 91
20211204062221 66 0 0.0 0.0 0.00 0.00 0.00 91
20211204061720 66 75 1.0 3.0 0.00 0.00 0.00 90
20211204061220 66 48 1.0 2.0 0.00 0.00 0.00 90
20211204060720 66 87 1.0 3.0 0.00 0.00 0.00 90
20211204060219 66 87 2.0 3.0 0.00 0.00 0.00 89
20211204055719 67 113 2.0 3.0 0.00 0.00 0.00 88
20211204055219 67 82 2.0 3.0 0.00 0.00 0.00 88
20211204054718 67 131 2.0 5.0 0.00 0.00 0.00 88
20211204054218 67 146 3.0 6.0 0.00 0.00 0.00 88
20211204053718 67 143 3.0 4.0 0.00 0.00 0.00 88
20211204053218 67 103 3.0 5.0 0.00 0.00 0.00 88
20211204052718 68 131 3.0 4.0 0.00 0.00 0.00 87
20211204052217 68 167 2.0 4.0 0.00 0.00 0.00 87